createdAt,value
2023-01-25T00:01:18.775Z,2.53
2023-01-25T00:03:47.208Z,2.40
2023-01-25T00:06:16.685Z,2.43
2023-01-25T00:08:44.727Z,2.45
2023-01-25T00:11:12.744Z,2.22
2023-01-25T00:13:40.773Z,2.37
2023-01-25T00:16:09.194Z,2.48
2023-01-25T00:18:37.529Z,2.53
2023-01-25T00:21:13.743Z,2.49
2023-01-25T00:23:43.211Z,2.36
2023-01-25T00:26:11.566Z,2.35
2023-01-25T00:28:39.866Z,2.37
2023-01-25T00:31:09.528Z,2.35
2023-01-25T00:33:45.460Z,2.17
2023-01-25T00:36:41.934Z,2.05
2023-01-25T00:39:14.680Z,1.99
2023-01-25T00:41:42.752Z,2.00
2023-01-25T00:44:11.237Z,2.09
2023-01-25T00:46:39.623Z,2.08
2023-01-25T00:49:07.731Z,2.00
2023-01-25T00:51:35.790Z,1.94
2023-01-25T00:54:03.785Z,2.00
2023-01-25T00:56:33.306Z,2.07
2023-01-25T00:59:01.253Z,1.70
2023-01-25T01:01:29.281Z,1.26
2023-01-25T01:03:57.451Z,1.14
2023-01-25T01:06:25.715Z,1.28
2023-01-25T01:08:53.861Z,1.06
2023-01-25T01:11:21.962Z,1.06
2023-01-25T01:13:51.627Z,1.08
2023-01-25T01:16:19.620Z,1.10
2023-01-25T01:18:47.684Z,1.17
2023-01-25T01:21:15.911Z,1.29
2023-01-25T01:23:44.387Z,1.42
2023-01-25T01:26:15.292Z,1.39
2023-01-25T01:28:44.359Z,1.48
2023-01-25T01:31:15.392Z,1.37
2023-01-25T01:33:43.615Z,1.35
2023-01-25T01:36:13.987Z,1.12
2023-01-25T01:38:42.846Z,1.13
2023-01-25T01:41:12.590Z,1.22
2023-01-25T01:43:40.812Z,1.29
2023-01-25T01:46:15.822Z,1.28
2023-01-25T01:48:49.100Z,1.30
2023-01-25T01:51:23.418Z,1.37
2023-01-25T01:53:54.072Z,1.47
2023-01-25T01:56:28.041Z,1.29
2023-01-25T01:58:59.171Z,1.26
2023-01-25T02:01:29.210Z,1.31
2023-01-25T02:03:57.567Z,1.39
2023-01-25T02:06:35.132Z,1.52
2023-01-25T02:09:03.222Z,1.45
2023-01-25T02:11:34.032Z,1.57
2023-01-25T02:14:03.203Z,1.51
2023-01-25T02:16:32.820Z,1.55
2023-01-25T02:19:03.770Z,1.54
2023-01-25T02:21:39.200Z,1.35
2023-01-25T02:24:13.785Z,1.53
2023-01-25T02:26:43.331Z,1.50
2023-01-25T02:29:12.097Z,1.62
2023-01-25T02:31:40.276Z,1.49
2023-01-25T02:34:08.324Z,1.14
2023-01-25T02:36:36.664Z,1.20
2023-01-25T02:39:09.013Z,1.39
2023-01-25T02:41:39.342Z,1.53
2023-01-25T02:44:12.817Z,1.53
2023-01-25T02:46:42.647Z,1.57
2023-01-25T02:49:11.661Z,1.59
2023-01-25T02:51:42.494Z,1.69
2023-01-25T02:54:12.619Z,1.73
2023-01-25T02:56:41.906Z,1.72
2023-01-25T02:59:13.562Z,1.70
2023-01-25T03:01:44.906Z,1.69
2023-01-25T03:04:12.958Z,1.71
2023-01-25T03:06:41.255Z,1.42
2023-01-25T03:09:11.722Z,1.51
2023-01-25T03:11:39.952Z,1.30
2023-01-25T03:14:08.020Z,1.25
2023-01-25T03:16:37.602Z,1.20
2023-01-25T03:19:05.629Z,1.36
2023-01-25T03:21:33.619Z,1.36
2023-01-25T03:24:03.316Z,1.37
2023-01-25T03:26:31.651Z,1.46
2023-01-25T03:28:59.861Z,1.57
2023-01-25T03:31:28.048Z,1.57
2023-01-25T03:33:57.624Z,1.64
2023-01-25T03:36:25.826Z,1.57
2023-01-25T03:38:53.871Z,1.44
2023-01-25T03:41:21.942Z,1.52
2023-01-25T03:43:49.910Z,1.43
2023-01-25T03:46:17.872Z,1.50
2023-01-25T03:48:46.087Z,1.35
2023-01-25T03:51:15.528Z,1.54
2023-01-25T03:53:43.448Z,1.71
2023-01-25T03:56:17.676Z,1.62
2023-01-25T03:58:45.683Z,1.30
2023-01-25T04:01:13.935Z,1.48
2023-01-25T04:03:42.028Z,1.71
2023-01-25T04:06:10.131Z,1.77
2023-01-25T04:08:39.941Z,1.85
2023-01-25T04:11:10.636Z,1.89
2023-01-25T04:13:39.803Z,1.87
2023-01-25T04:16:09.766Z,1.88
2023-01-25T04:18:38.163Z,1.90
2023-01-25T04:21:06.447Z,1.89
2023-01-25T04:23:34.437Z,1.73
2023-01-25T04:26:06.377Z,1.93
2023-01-25T04:28:36.377Z,1.95
2023-01-25T04:31:06.276Z,1.95
2023-01-25T04:33:34.832Z,1.96
2023-01-25T04:36:02.930Z,1.99
2023-01-25T04:38:30.947Z,1.94
2023-01-25T04:40:59.006Z,1.94
2023-01-25T04:43:28.492Z,2.01
2023-01-25T04:45:56.502Z,1.97
2023-01-25T04:48:24.552Z,1.97
2023-01-25T04:50:52.666Z,2.03
2023-01-25T04:53:20.685Z,1.87
2023-01-25T04:55:49.059Z,1.82
2023-01-25T04:58:17.219Z,1.86
2023-01-25T05:00:46.982Z,1.84
2023-01-25T05:03:15.033Z,1.92
2023-01-25T05:05:47.428Z,1.79
2023-01-25T05:08:15.436Z,1.63
2023-01-25T05:10:43.452Z,1.65
2023-01-25T05:13:11.510Z,1.88
2023-01-25T05:15:40.072Z,1.90
2023-01-25T05:18:09.528Z,2.03
2023-01-25T05:20:37.627Z,2.06
2023-01-25T05:23:05.834Z,2.02
2023-01-25T05:25:51.082Z,2.13
2023-01-25T05:28:19.121Z,2.00
2023-01-25T05:30:47.213Z,1.68
2023-01-25T05:33:16.677Z,1.41
2023-01-25T05:35:44.707Z,1.40
2023-01-25T05:38:12.739Z,1.53
2023-01-25T05:40:40.741Z,1.80
2023-01-25T05:43:08.720Z,1.88
2023-01-25T05:45:37.051Z,1.93
2023-01-25T05:48:05.225Z,1.97
2023-01-25T05:50:34.885Z,1.96
2023-01-25T05:53:02.920Z,1.93
2023-01-25T05:55:30.918Z,1.49
2023-01-25T05:57:58.942Z,1.48
2023-01-25T06:00:27.147Z,1.66
2023-01-25T06:02:57.032Z,1.91
2023-01-25T06:05:25.080Z,2.01
2023-01-25T06:07:54.489Z,2.03
2023-01-25T06:10:22.507Z,2.00
2023-01-25T06:12:50.526Z,1.94
2023-01-25T06:15:18.560Z,2.00
2023-01-25T06:17:46.581Z,2.04
2023-01-25T06:20:14.991Z,2.02
2023-01-25T06:22:43.072Z,2.03
2023-01-25T06:25:12.684Z,2.03
2023-01-25T06:27:40.805Z,2.07
2023-01-25T06:30:11.357Z,2.07
2023-01-25T06:32:39.452Z,2.04
2023-01-25T06:35:08.065Z,2.12
2023-01-25T06:37:36.335Z,2.14
2023-01-25T06:40:05.080Z,2.10
2023-01-25T06:42:34.510Z,1.92
2023-01-25T06:45:02.447Z,2.06
2023-01-25T06:47:30.399Z,2.07
2023-01-25T06:49:58.355Z,2.10
2023-01-25T06:52:26.292Z,2.10
2023-01-25T06:54:54.270Z,2.14
2023-01-25T06:57:22.232Z,2.19
2023-01-25T06:59:51.583Z,2.22
2023-01-25T07:02:19.568Z,2.22
2023-01-25T07:04:47.592Z,2.21
2023-01-25T07:07:15.697Z,2.25
2023-01-25T07:09:43.957Z,2.26
2023-01-25T07:12:11.895Z,2.30
2023-01-25T07:14:39.807Z,2.34
2023-01-25T07:17:09.160Z,2.32
2023-01-25T07:19:37.470Z,2.31
2023-01-25T07:22:05.502Z,2.32
2023-01-25T07:24:33.667Z,2.30
2023-01-25T07:27:01.618Z,2.17
2023-01-25T07:29:29.974Z,2.30
2023-01-25T07:31:58.037Z,2.29
2023-01-25T07:34:29.063Z,2.33
2023-01-25T07:36:57.063Z,2.31
2023-01-25T07:39:25.134Z,2.11
2023-01-25T07:41:53.177Z,2.22
2023-01-25T07:44:21.397Z,2.29
2023-01-25T07:46:49.649Z,2.31
2023-01-25T07:49:17.617Z,2.37
2023-01-25T07:51:47.030Z,2.40
2023-01-25T07:54:15.180Z,2.38
2023-01-25T07:56:43.215Z,2.34
2023-01-25T07:59:11.930Z,2.33
2023-01-25T08:01:40.649Z,2.31
2023-01-25T08:04:09.483Z,2.25
2023-01-25T08:06:40.153Z,2.20
2023-01-25T08:09:14.291Z,2.25
2023-01-25T08:11:43.468Z,2.29
2023-01-25T08:14:11.779Z,2.14
2023-01-25T08:16:39.962Z,2.08
2023-01-25T08:19:08.228Z,2.22
2023-01-25T08:21:36.521Z,2.13
2023-01-25T08:24:06.550Z,2.29
2023-01-25T08:26:37.118Z,2.26
2023-01-25T08:29:09.071Z,2.20
2023-01-25T08:31:37.895Z,2.37
2023-01-25T08:34:06.946Z,2.31
2023-01-25T08:36:35.810Z,2.23
2023-01-25T08:39:06.927Z,1.88
2023-01-25T08:41:37.399Z,1.97
2023-01-25T08:44:06.262Z,1.89
2023-01-25T08:46:35.203Z,1.78
2023-01-25T08:49:04.097Z,1.93
2023-01-25T08:51:33.785Z,1.97
2023-01-25T08:54:06.173Z,2.06
2023-01-25T08:56:37.840Z,2.00
2023-01-25T08:59:06.222Z,2.12
2023-01-25T09:01:34.213Z,1.92
2023-01-25T09:04:02.452Z,1.88
2023-01-25T09:06:30.589Z,1.73
2023-01-25T09:09:00.282Z,1.79
2023-01-25T09:11:28.557Z,1.76
2023-01-25T09:13:58.311Z,1.77
2023-01-25T09:16:30.776Z,2.00
2023-01-25T09:19:00.250Z,2.12
2023-01-25T09:21:29.301Z,2.07
2023-01-25T09:24:06.088Z,2.02
2023-01-25T09:26:36.010Z,1.74
2023-01-25T09:29:08.130Z,1.86
2023-01-25T09:31:36.889Z,1.93
2023-01-25T09:34:04.896Z,2.04
2023-01-25T09:36:32.962Z,1.77
2023-01-25T09:39:01.011Z,1.67
2023-01-25T09:41:43.653Z,1.44
2023-01-25T09:44:25.311Z,1.37
2023-01-25T09:46:56.393Z,1.42
2023-01-25T09:49:36.317Z,1.43
2023-01-25T09:52:23.410Z,1.57
2023-01-25T09:54:51.547Z,1.44
2023-01-25T09:57:24.349Z,1.16
2023-01-25T09:59:55.188Z,1.23
2023-01-25T10:02:37.315Z,1.54
2023-01-25T10:05:13.404Z,1.55
2023-01-25T10:07:53.789Z,1.47
2023-01-25T10:10:27.634Z,1.58
2023-01-25T10:12:55.635Z,1.67
2023-01-25T10:15:30.332Z,1.85
2023-01-25T10:18:05.210Z,1.97
2023-01-25T10:20:40.839Z,1.95
2023-01-25T10:23:35.417Z,1.83
2023-01-25T10:26:11.671Z,1.57
2023-01-25T10:28:46.123Z,1.74
2023-01-25T10:31:20.192Z,1.64
2023-01-25T10:33:50.042Z,1.62
2023-01-25T10:36:22.842Z,1.61
2023-01-25T10:38:57.516Z,1.54
2023-01-25T10:41:32.730Z,1.71
2023-01-25T10:44:14.579Z,1.65
2023-01-25T10:46:52.277Z,1.63
2023-01-25T10:49:25.325Z,1.73
2023-01-25T10:51:53.376Z,1.71
2023-01-25T10:54:24.043Z,1.73
2023-01-25T10:56:53.540Z,1.60
2023-01-25T10:59:25.649Z,1.70
2023-01-25T11:01:55.403Z,1.56
2023-01-25T11:04:30.410Z,1.45
2023-01-25T11:06:59.630Z,1.48
2023-01-25T11:09:36.993Z,1.59
2023-01-25T11:12:08.549Z,1.56
2023-01-25T11:14:36.542Z,1.63
2023-01-25T11:17:07.326Z,1.66
2023-01-25T11:19:37.639Z,1.45
2023-01-25T11:22:07.243Z,1.48
2023-01-25T11:24:36.815Z,1.56
2023-01-25T11:27:29.193Z,1.53
2023-01-25T11:30:13.117Z,1.39
2023-01-25T11:32:42.962Z,1.52
2023-01-25T11:35:15.982Z,1.59
2023-01-25T11:38:02.570Z,1.57
2023-01-25T11:40:39.271Z,1.49
2023-01-25T11:43:18.308Z,1.57
2023-01-25T11:46:16.973Z,1.46
2023-01-25T11:49:19.100Z,1.59
2023-01-25T11:51:55.862Z,1.72
2023-01-25T11:54:40.553Z,1.48
2023-01-25T11:57:15.668Z,1.61
2023-01-25T11:59:57.022Z,1.71
2023-01-25T12:03:03.522Z,1.51
2023-01-25T12:05:55.083Z,1.55
2023-01-25T12:08:42.109Z,1.67
2023-01-25T12:11:19.804Z,1.68
2023-01-25T12:13:56.750Z,1.65
2023-01-25T12:16:44.882Z,1.84
2023-01-25T12:19:55.929Z,1.77
2023-01-25T12:22:59.353Z,1.87
2023-01-25T12:25:33.887Z,1.81
2023-01-25T12:28:13.871Z,2.02
2023-01-25T12:30:52.562Z,1.88
2023-01-25T12:33:26.331Z,1.78
2023-01-25T12:36:01.380Z,1.92
2023-01-25T12:38:36.951Z,2.03
2023-01-25T12:41:13.103Z,1.95
2023-01-25T12:43:47.632Z,1.84
2023-01-25T12:46:22.729Z,1.91
2023-01-25T12:48:54.886Z,1.76
2023-01-25T12:51:30.228Z,1.79
2023-01-25T12:54:02.214Z,1.70
2023-01-25T12:56:44.064Z,1.72
2023-01-25T12:59:19.874Z,1.86
2023-01-25T13:01:53.754Z,1.97
2023-01-25T13:04:38.473Z,2.03
2023-01-25T13:07:11.861Z,2.02
2023-01-25T13:09:46.739Z,2.10
2023-01-25T13:12:15.636Z,2.15
2023-01-25T13:14:44.293Z,2.16
2023-01-25T13:17:22.545Z,2.19
2023-01-25T13:19:51.731Z,2.18
2023-01-25T13:22:55.032Z,2.27
2023-01-25T13:25:25.639Z,1.78
2023-01-25T13:27:54.129Z,1.73
2023-01-25T13:30:32.630Z,1.79
2023-01-25T13:33:03.576Z,1.82
2023-01-25T13:35:37.659Z,1.76
2023-01-25T13:38:25.748Z,1.79
2023-01-25T13:41:12.425Z,2.05
2023-01-25T13:43:43.541Z,2.06
2023-01-25T13:46:15.911Z,2.03
2023-01-25T13:48:53.344Z,2.03
2023-01-25T13:51:21.986Z,1.77
2023-01-25T13:54:00.821Z,1.70
2023-01-25T13:56:33.202Z,1.63
2023-01-25T13:59:01.601Z,1.77
2023-01-25T14:01:32.618Z,1.83
2023-01-25T14:04:03.499Z,1.73
2023-01-25T14:06:34.703Z,1.74
2023-01-25T14:09:07.758Z,1.80
2023-01-25T14:11:44.290Z,1.70
2023-01-25T14:14:21.660Z,1.70
2023-01-25T14:19:38.237Z,1.84
2023-01-25T14:22:22.762Z,1.86
2023-01-25T14:25:07.321Z,1.86
2023-01-25T14:27:38.087Z,1.75
2023-01-25T14:30:07.079Z,1.55
2023-01-25T14:32:37.015Z,1.76
2023-01-25T14:35:42.818Z,1.75
2023-01-25T14:38:29.942Z,1.67
2023-01-25T14:41:02.354Z,1.75
2023-01-25T14:43:32.812Z,1.76
2023-01-25T14:46:00.884Z,1.76
2023-01-25T14:48:41.296Z,1.91
2023-01-25T14:51:28.881Z,2.01
2023-01-25T14:54:02.847Z,1.95
2023-01-25T14:56:43.690Z,1.89
2023-01-25T14:59:41.631Z,1.85
2023-01-25T15:02:22.922Z,1.69
2023-01-25T15:04:57.210Z,1.66
2023-01-25T15:07:43.227Z,1.56
2023-01-25T15:10:18.838Z,1.58
2023-01-25T15:13:12.850Z,1.58
2023-01-25T15:15:54.723Z,1.54
2023-01-25T15:18:45.306Z,1.50
2023-01-25T15:21:14.845Z,1.51
2023-01-25T15:23:44.016Z,1.42
2023-01-25T15:26:20.277Z,1.65
2023-01-25T15:28:49.112Z,1.64
2023-01-25T15:31:20.671Z,1.61
2023-01-25T15:33:49.151Z,1.54
2023-01-25T15:36:17.918Z,1.68
2023-01-25T15:38:46.330Z,1.70
2023-01-25T15:41:14.650Z,1.74
2023-01-25T15:43:43.371Z,1.69
2023-01-25T15:46:16.857Z,1.65
2023-01-25T15:48:47.605Z,1.69
2023-01-25T15:51:15.745Z,1.85
2023-01-25T15:53:44.210Z,1.89
2023-01-25T15:56:15.796Z,1.72
2023-01-25T15:58:47.215Z,1.69
2023-01-25T16:01:15.857Z,1.81
2023-01-25T16:03:43.861Z,1.72
2023-01-25T16:06:28.653Z,1.73
2023-01-25T16:08:58.983Z,1.70
2023-01-25T16:11:27.712Z,1.85
2023-01-25T16:13:58.178Z,1.90
2023-01-25T16:16:27.242Z,1.93
2023-01-25T16:18:55.285Z,1.89
2023-01-25T16:21:26.410Z,1.84
2023-01-25T16:23:54.485Z,1.90
2023-01-25T16:26:25.999Z,1.77
2023-01-25T16:28:54.523Z,1.92
2023-01-25T16:31:32.357Z,2.07
2023-01-25T16:34:01.597Z,2.08
2023-01-25T16:36:31.604Z,1.93
2023-01-25T16:39:09.877Z,1.91
2023-01-25T16:41:38.622Z,1.92
2023-01-25T16:44:07.028Z,1.84
2023-01-25T16:46:35.415Z,1.66
2023-01-25T16:49:07.137Z,1.65
2023-01-25T16:51:38.516Z,1.79
2023-01-25T16:54:06.833Z,1.71
2023-01-25T16:56:35.300Z,1.82
2023-01-25T16:59:05.737Z,1.96
2023-01-25T17:01:34.577Z,1.73
2023-01-25T17:04:02.890Z,1.83
2023-01-25T17:06:33.612Z,1.90
2023-01-25T17:09:20.593Z,2.05
2023-01-25T17:11:50.732Z,2.10
2023-01-25T17:14:20.401Z,2.09
2023-01-25T17:16:51.872Z,2.27
2023-01-25T17:19:21.001Z,2.34
2023-01-25T17:21:50.149Z,2.45
2023-01-25T17:24:22.354Z,2.38
2023-01-25T17:26:51.157Z,2.33
2023-01-25T17:29:19.305Z,2.46
2023-01-25T17:31:47.398Z,2.61
2023-01-25T17:34:19.456Z,2.65
2023-01-25T17:36:47.898Z,2.53
2023-01-25T17:39:17.453Z,2.50
2023-01-25T17:41:48.742Z,2.35
2023-01-25T17:44:21.306Z,2.41
2023-01-25T17:46:50.409Z,2.45
2023-01-25T17:49:18.777Z,2.39
2023-01-25T17:51:47.041Z,2.35
2023-01-25T17:54:15.174Z,2.35
2023-01-25T17:56:43.587Z,2.08
2023-01-25T17:59:13.041Z,2.04
2023-01-25T18:01:42.951Z,1.86
2023-01-25T18:04:13.540Z,1.87
2023-01-25T18:06:42.292Z,1.84
2023-01-25T18:09:11.381Z,1.73
2023-01-25T18:11:41.462Z,1.75
2023-01-25T18:14:12.901Z,1.66
2023-01-25T18:16:43.139Z,1.72
2023-01-25T18:19:12.748Z,1.78
2023-01-25T18:21:42.238Z,1.73
2023-01-25T18:24:26.721Z,1.70
2023-01-25T18:27:02.184Z,1.75
2023-01-25T18:29:37.809Z,1.61
2023-01-25T18:32:08.530Z,1.42
2023-01-25T18:34:36.889Z,1.50
2023-01-25T18:37:19.732Z,1.48
2023-01-25T18:39:49.582Z,1.42
2023-01-25T18:42:18.199Z,1.45
2023-01-25T18:44:49.434Z,1.61
2023-01-25T18:47:20.363Z,1.44
2023-01-25T18:49:49.616Z,1.66
2023-01-25T18:52:18.678Z,1.77
2023-01-25T18:54:47.302Z,1.88
2023-01-25T18:57:16.579Z,1.83
2023-01-25T18:59:45.473Z,1.76
2023-01-25T19:02:15.598Z,1.59
2023-01-25T19:04:46.201Z,1.85
2023-01-25T19:07:15.231Z,1.79
2023-01-25T19:09:44.182Z,1.64
2023-01-25T19:12:13.976Z,1.74
2023-01-25T19:14:43.017Z,1.69
2023-01-25T19:17:11.657Z,1.34
2023-01-25T19:19:40.284Z,1.52
2023-01-25T19:22:10.751Z,1.64
2023-01-25T19:24:39.481Z,1.62
2023-01-25T19:27:08.390Z,1.43
2023-01-25T19:29:37.544Z,1.51
2023-01-25T19:32:06.895Z,1.26
2023-01-25T19:34:35.547Z,1.36
2023-01-25T19:37:04.613Z,1.41
2023-01-25T19:39:34.548Z,1.48
2023-01-25T19:42:03.196Z,1.56
2023-01-25T19:44:32.316Z,1.61
2023-01-25T19:47:01.238Z,1.55
2023-01-25T19:49:30.779Z,1.68
2023-01-25T19:52:00.443Z,1.45
2023-01-25T19:54:29.077Z,1.62
2023-01-25T19:56:59.378Z,1.69
2023-01-25T19:59:29.489Z,1.49
2023-01-25T20:01:58.460Z,1.64
2023-01-25T20:04:27.585Z,1.73
2023-01-25T20:06:56.003Z,1.76
2023-01-25T20:09:28.279Z,1.91
2023-01-25T20:12:01.123Z,1.99
2023-01-25T20:14:29.423Z,1.95
2023-01-25T20:16:57.747Z,1.96
2023-01-25T20:19:26.449Z,1.98
2023-01-25T20:21:55.443Z,1.93
2023-01-25T20:24:23.864Z,1.78
2023-01-25T20:26:52.779Z,1.80
2023-01-25T20:29:23.981Z,1.81
2023-01-25T20:31:52.133Z,1.58
2023-01-25T20:34:22.221Z,1.61
2023-01-25T20:36:51.344Z,1.78
2023-01-25T20:39:21.159Z,1.97
2023-01-25T20:41:51.585Z,1.93
2023-01-25T20:44:19.906Z,1.95
2023-01-25T20:46:50.215Z,1.94
2023-01-25T20:49:20.066Z,1.89
2023-01-25T20:51:48.691Z,1.79
2023-01-25T20:54:18.357Z,1.64
2023-01-25T20:56:48.195Z,1.72
2023-01-25T20:59:17.873Z,1.86
2023-01-25T21:01:46.898Z,1.92
2023-01-25T21:04:16.850Z,1.83
2023-01-25T21:06:44.887Z,1.68
2023-01-25T21:09:13.403Z,1.51
2023-01-25T21:11:41.489Z,1.51
2023-01-25T21:14:09.927Z,1.55
2023-01-25T21:16:37.975Z,1.57
2023-01-25T21:19:07.815Z,1.49
2023-01-25T21:21:38.648Z,1.54
2023-01-25T21:24:07.613Z,1.38
2023-01-25T21:26:37.249Z,1.45
2023-01-25T21:29:06.602Z,1.53
2023-01-25T21:31:36.115Z,1.68
2023-01-25T21:34:05.441Z,1.69
2023-01-25T21:36:33.813Z,1.75
2023-01-25T21:39:03.783Z,1.84
2023-01-25T21:41:34.001Z,1.85
2023-01-25T21:44:20.312Z,1.92
2023-01-25T21:47:15.753Z,1.77
2023-01-25T21:50:08.546Z,1.84
2023-01-25T21:52:37.344Z,1.66
2023-01-25T21:55:09.007Z,1.70
2023-01-25T21:57:41.034Z,1.53
2023-01-25T22:00:10.784Z,1.38
2023-01-25T22:02:39.382Z,1.51
2023-01-25T22:05:07.884Z,1.37
2023-01-25T22:07:35.906Z,1.34
2023-01-25T22:10:04.404Z,1.44
2023-01-25T22:12:33.898Z,1.51
2023-01-25T22:15:02.072Z,1.53
2023-01-25T22:17:30.420Z,1.54
2023-01-25T22:19:58.446Z,1.37
2023-01-25T22:22:26.469Z,1.39
2023-01-25T22:24:54.675Z,1.38
2023-01-25T22:27:38.414Z,1.53
2023-01-25T22:30:08.218Z,1.52
2023-01-25T22:32:36.427Z,1.46
2023-01-25T22:35:04.757Z,1.29
2023-01-25T22:37:36.107Z,1.37
2023-01-25T22:40:04.630Z,1.28
2023-01-25T22:42:35.081Z,1.49
2023-01-25T22:45:03.167Z,1.27
2023-01-25T22:47:31.236Z,1.29
2023-01-25T22:49:59.277Z,1.15
2023-01-25T22:52:27.183Z,1.09
2023-01-25T22:54:55.227Z,1.24
2023-01-25T22:57:23.257Z,1.17
2023-01-25T22:59:52.726Z,1.31
2023-01-25T23:02:21.072Z,1.35
2023-01-25T23:04:49.167Z,1.49
2023-01-25T23:07:19.114Z,1.54
2023-01-25T23:09:48.522Z,1.17
2023-01-25T23:12:16.730Z,1.30
2023-01-25T23:14:54.194Z,1.25
2023-01-25T23:17:42.446Z,1.02
2023-01-25T23:20:13.405Z,1.10
2023-01-25T23:22:41.756Z,1.06
2023-01-25T23:25:11.316Z,1.15
2023-01-25T23:27:39.632Z,1.08
2023-01-25T23:30:09.802Z,1.15
2023-01-25T23:32:39.753Z,1.17
2023-01-25T23:35:08.903Z,1.03
2023-01-25T23:37:36.974Z,1.05
2023-01-25T23:40:09.182Z,1.10
2023-01-25T23:42:37.786Z,1.18
2023-01-25T23:45:06.757Z,1.23
2023-01-25T23:47:35.142Z,0.97
2023-01-25T23:50:05.039Z,0.75
2023-01-25T23:52:33.177Z,0.97
2023-01-25T23:55:01.260Z,1.08
2023-01-25T23:57:29.382Z,0.98
2023-01-25T23:59:57.407Z,0.95
